sensor_id;sensor_type;location;lat;lon;timestamp;P1;durP1;ratioP1;P2;durP2;ratioP2
10088;SDS011;51898;49.864;8.550;2023-07-31T00:02:38;5.27;;;2.30;;
10088;SDS011;51898;49.864;8.550;2023-07-31T00:05:40;3.20;;;2.33;;
10088;SDS011;51898;49.864;8.550;2023-07-31T00:08:41;8.07;;;2.47;;
10088;SDS011;51898;49.864;8.550;2023-07-31T00:11:43;6.17;;;2.53;;
10088;SDS011;51898;49.864;8.550;2023-07-31T00:14:45;8.37;;;2.67;;
10088;SDS011;51898;49.864;8.550;2023-07-31T00:17:47;4.13;;;2.43;;
10088;SDS011;51898;49.864;8.550;2023-07-31T00:20:49;5.27;;;2.30;;
10088;SDS011;51898;49.864;8.550;2023-07-31T00:23:50;3.03;;;2.50;;
10088;SDS011;51898;49.864;8.550;2023-07-31T00:26:52;3.70;;;2.57;;
10088;SDS011;51898;49.864;8.550;2023-07-31T00:29:54;5.67;;;2.60;;
10088;SDS011;51898;49.864;8.550;2023-07-31T00:32:55;4.90;;;2.63;;
10088;SDS011;51898;49.864;8.550;2023-07-31T00:35:57;3.50;;;2.00;;
10088;SDS011;51898;49.864;8.550;2023-07-31T00:38:59;4.67;;;2.40;;
10088;SDS011;51898;49.864;8.550;2023-07-31T00:42:00;4.87;;;2.50;;
10088;SDS011;51898;49.864;8.550;2023-07-31T00:45:05;4.00;;;2.33;;
10088;SDS011;51898;49.864;8.550;2023-07-31T00:48:07;3.90;;;2.57;;
10088;SDS011;51898;49.864;8.550;2023-07-31T00:51:09;2.63;;;1.90;;
10088;SDS011;51898;49.864;8.550;2023-07-31T00:54:12;3.20;;;2.27;;
10088;SDS011;51898;49.864;8.550;2023-07-31T00:57:14;4.10;;;2.40;;
10088;SDS011;51898;49.864;8.550;2023-07-31T01:00:16;4.77;;;2.53;;
10088;SDS011;51898;49.864;8.550;2023-07-31T01:03:18;5.30;;;2.40;;
10088;SDS011;51898;49.864;8.550;2023-07-31T01:09:53;5.90;;;2.33;;
10088;SDS011;51898;49.864;8.550;2023-07-31T01:13:04;3.70;;;2.33;;
10088;SDS011;51898;49.864;8.550;2023-07-31T01:16:07;2.60;;;2.20;;
10088;SDS011;51898;49.864;8.550;2023-07-31T01:19:09;3.93;;;2.67;;
10088;SDS011;51898;49.864;8.550;2023-07-31T01:29:07;3.80;;;2.30;;
10088;SDS011;51898;49.864;8.550;2023-07-31T01:32:18;5.43;;;2.60;;
10088;SDS011;51898;49.864;8.550;2023-07-31T01:35:20;6.17;;;2.73;;
10088;SDS011;51898;49.864;8.550;2023-07-31T01:38:22;2.50;;;2.00;;
10088;SDS011;51898;49.864;8.550;2023-07-31T01:41:24;3.47;;;2.30;;
10088;SDS011;51898;49.864;8.550;2023-07-31T01:44:29;3.40;;;2.50;;
10088;SDS011;51898;49.864;8.550;2023-07-31T01:47:30;3.00;;;2.40;;
10088;SDS011;51898;49.864;8.550;2023-07-31T01:50:32;4.47;;;2.53;;
10088;SDS011;51898;49.864;8.550;2023-07-31T01:53:34;6.20;;;3.07;;
10088;SDS011;51898;49.864;8.550;2023-07-31T01:56:38;7.50;;;3.10;;
10088;SDS011;51898;49.864;8.550;2023-07-31T01:59:40;3.70;;;2.33;;
10088;SDS011;51898;49.864;8.550;2023-07-31T02:02:41;3.87;;;2.77;;
10088;SDS011;51898;49.864;8.550;2023-07-31T02:05:46;4.53;;;2.80;;
10088;SDS011;51898;49.864;8.550;2023-07-31T02:08:49;4.20;;;2.50;;
10088;SDS011;51898;49.864;8.550;2023-07-31T02:11:50;3.10;;;2.37;;
10088;SDS011;51898;49.864;8.550;2023-07-31T02:14:52;6.07;;;3.07;;
10088;SDS011;51898;49.864;8.550;2023-07-31T02:17:54;2.70;;;2.00;;
10088;SDS011;51898;49.864;8.550;2023-07-31T02:20:55;7.40;;;3.03;;
10088;SDS011;51898;49.864;8.550;2023-07-31T02:23:57;5.40;;;3.00;;
10088;SDS011;51898;49.864;8.550;2023-07-31T02:26:59;4.57;;;2.70;;
10088;SDS011;51898;49.864;8.550;2023-07-31T02:30:00;6.30;;;2.60;;
10088;SDS011;51898;49.864;8.550;2023-07-31T02:33:02;4.47;;;2.37;;
10088;SDS011;51898;49.864;8.550;2023-07-31T02:36:04;5.87;;;2.93;;
10088;SDS011;51898;49.864;8.550;2023-07-31T02:39:06;7.40;;;3.13;;
10088;SDS011;51898;49.864;8.550;2023-07-31T02:42:08;6.80;;;2.77;;
10088;SDS011;51898;49.864;8.550;2023-07-31T02:45:09;3.87;;;2.70;;
10088;SDS011;51898;49.864;8.550;2023-07-31T02:48:11;3.47;;;2.40;;
10088;SDS011;51898;49.864;8.550;2023-07-31T02:51:12;5.37;;;4.00;;
10088;SDS011;51898;49.864;8.550;2023-07-31T02:54:14;4.93;;;2.67;;
10088;SDS011;51898;49.864;8.550;2023-07-31T02:57:16;5.30;;;2.80;;
10088;SDS011;51898;49.864;8.550;2023-07-31T03:00:18;8.33;;;3.00;;
10088;SDS011;51898;49.864;8.550;2023-07-31T03:03:20;3.07;;;2.73;;
10088;SDS011;51898;49.864;8.550;2023-07-31T03:06:22;6.37;;;2.53;;
10088;SDS011;51898;49.864;8.550;2023-07-31T03:09:23;7.03;;;2.60;;
10088;SDS011;51898;49.864;8.550;2023-07-31T03:12:25;5.67;;;2.70;;
10088;SDS011;51898;49.864;8.550;2023-07-31T03:15:27;6.10;;;2.40;;
10088;SDS011;51898;49.864;8.550;2023-07-31T03:18:29;6.33;;;2.80;;
10088;SDS011;51898;49.864;8.550;2023-07-31T03:21:30;8.87;;;3.00;;
10088;SDS011;51898;49.864;8.550;2023-07-31T03:24:32;4.77;;;2.97;;
10088;SDS011;51898;49.864;8.550;2023-07-31T03:27:34;2.67;;;2.47;;
10088;SDS011;51898;49.864;8.550;2023-07-31T03:30:38;6.90;;;3.03;;
10088;SDS011;51898;49.864;8.550;2023-07-31T03:33:39;5.73;;;3.00;;
10088;SDS011;51898;49.864;8.550;2023-07-31T03:36:41;6.20;;;3.13;;
10088;SDS011;51898;49.864;8.550;2023-07-31T03:39:46;5.33;;;3.20;;
10088;SDS011;51898;49.864;8.550;2023-07-31T03:42:47;7.90;;;2.60;;
10088;SDS011;51898;49.864;8.550;2023-07-31T03:45:49;4.97;;;3.50;;
10088;SDS011;51898;49.864;8.550;2023-07-31T03:48:51;5.97;;;3.00;;
10088;SDS011;51898;49.864;8.550;2023-07-31T03:51:53;3.83;;;2.90;;
10088;SDS011;51898;49.864;8.550;2023-07-31T03:54:55;7.10;;;3.53;;
10088;SDS011;51898;49.864;8.550;2023-07-31T03:57:58;4.07;;;2.70;;
10088;SDS011;51898;49.864;8.550;2023-07-31T04:01:01;11.90;;;3.63;;
10088;SDS011;51898;49.864;8.550;2023-07-31T04:04:03;4.97;;;2.60;;
10088;SDS011;51898;49.864;8.550;2023-07-31T04:07:05;7.70;;;3.20;;
10088;SDS011;51898;49.864;8.550;2023-07-31T04:10:06;4.50;;;2.80;;
10088;SDS011;51898;49.864;8.550;2023-07-31T04:13:11;10.00;;;3.10;;
10088;SDS011;51898;49.864;8.550;2023-07-31T04:16:13;4.90;;;2.93;;
10088;SDS011;51898;49.864;8.550;2023-07-31T04:19:15;4.87;;;3.10;;
10088;SDS011;51898;49.864;8.550;2023-07-31T04:22:17;7.40;;;3.53;;
10088;SDS011;51898;49.864;8.550;2023-07-31T04:25:19;5.33;;;3.00;;
10088;SDS011;51898;49.864;8.550;2023-07-31T04:28:21;5.50;;;2.97;;
10088;SDS011;51898;49.864;8.550;2023-07-31T04:31:23;4.30;;;2.73;;
10088;SDS011;51898;49.864;8.550;2023-07-31T04:34:24;5.93;;;3.07;;
10088;SDS011;51898;49.864;8.550;2023-07-31T04:37:26;6.57;;;3.60;;
10088;SDS011;51898;49.864;8.550;2023-07-31T04:40:28;4.23;;;2.93;;
10088;SDS011;51898;49.864;8.550;2023-07-31T04:43:29;9.87;;;3.70;;
10088;SDS011;51898;49.864;8.550;2023-07-31T04:46:31;8.27;;;3.40;;
10088;SDS011;51898;49.864;8.550;2023-07-31T04:49:33;4.83;;;3.47;;
10088;SDS011;51898;49.864;8.550;2023-07-31T04:52:35;4.50;;;3.00;;
10088;SDS011;51898;49.864;8.550;2023-07-31T04:55:37;4.60;;;2.80;;
10088;SDS011;51898;49.864;8.550;2023-07-31T04:58:38;6.50;;;3.30;;
10088;SDS011;51898;49.864;8.550;2023-07-31T05:01:40;5.87;;;3.23;;
10088;SDS011;51898;49.864;8.550;2023-07-31T05:04:42;8.37;;;3.30;;
10088;SDS011;51898;49.864;8.550;2023-07-31T05:07:43;4.50;;;2.67;;
10088;SDS011;51898;49.864;8.550;2023-07-31T05:10:45;6.30;;;2.90;;
10088;SDS011;51898;49.864;8.550;2023-07-31T05:13:47;7.60;;;3.60;;
10088;SDS011;51898;49.864;8.550;2023-07-31T05:16:48;9.57;;;3.20;;
10088;SDS011;51898;49.864;8.550;2023-07-31T05:19:50;4.37;;;3.10;;
10088;SDS011;51898;49.864;8.550;2023-07-31T05:22:52;6.30;;;3.23;;
10088;SDS011;51898;49.864;8.550;2023-07-31T05:25:54;5.87;;;3.03;;
10088;SDS011;51898;49.864;8.550;2023-07-31T05:28:55;7.30;;;2.77;;
10088;SDS011;51898;49.864;8.550;2023-07-31T05:31:59;6.03;;;3.20;;
10088;SDS011;51898;49.864;8.550;2023-07-31T05:35:00;4.93;;;3.00;;
10088;SDS011;51898;49.864;8.550;2023-07-31T05:38:02;6.40;;;2.90;;
10088;SDS011;51898;49.864;8.550;2023-07-31T05:41:04;3.80;;;2.90;;
10088;SDS011;51898;49.864;8.550;2023-07-31T05:44:05;5.00;;;3.57;;
10088;SDS011;51898;49.864;8.550;2023-07-31T05:47:07;4.20;;;2.97;;
10088;SDS011;51898;49.864;8.550;2023-07-31T05:50:09;6.17;;;3.20;;
10088;SDS011;51898;49.864;8.550;2023-07-31T05:53:11;9.17;;;3.60;;
10088;SDS011;51898;49.864;8.550;2023-07-31T05:56:12;4.30;;;3.27;;
10088;SDS011;51898;49.864;8.550;2023-07-31T05:59:14;5.63;;;3.47;;
10088;SDS011;51898;49.864;8.550;2023-07-31T06:02:17;6.73;;;3.23;;
10088;SDS011;51898;49.864;8.550;2023-07-31T06:05:18;7.23;;;3.87;;
10088;SDS011;51898;49.864;8.550;2023-07-31T06:08:20;5.63;;;3.30;;
10088;SDS011;51898;49.864;8.550;2023-07-31T06:11:22;6.57;;;3.00;;
10088;SDS011;51898;49.864;8.550;2023-07-31T06:14:24;5.33;;;2.93;;
10088;SDS011;51898;49.864;8.550;2023-07-31T06:17:26;10.43;;;4.20;;
10088;SDS011;51898;49.864;8.550;2023-07-31T06:20:28;5.17;;;3.10;;
10088;SDS011;51898;49.864;8.550;2023-07-31T06:23:29;6.07;;;3.10;;
10088;SDS011;51898;49.864;8.550;2023-07-31T06:26:31;7.23;;;3.23;;
10088;SDS011;51898;49.864;8.550;2023-07-31T06:29:33;8.00;;;2.87;;
10088;SDS011;51898;49.864;8.550;2023-07-31T06:32:35;7.40;;;3.27;;
10088;SDS011;51898;49.864;8.550;2023-07-31T06:35:37;7.27;;;3.00;;
10088;SDS011;51898;49.864;8.550;2023-07-31T06:38:39;7.30;;;3.30;;
10088;SDS011;51898;49.864;8.550;2023-07-31T06:41:41;7.67;;;3.40;;
10088;SDS011;51898;49.864;8.550;2023-07-31T06:44:44;6.17;;;3.47;;
10088;SDS011;51898;49.864;8.550;2023-07-31T06:47:45;5.20;;;3.00;;
10088;SDS011;51898;49.864;8.550;2023-07-31T06:50:49;7.47;;;3.43;;
10088;SDS011;51898;49.864;8.550;2023-07-31T06:53:50;4.47;;;2.73;;
10088;SDS011;51898;49.864;8.550;2023-07-31T06:56:52;7.10;;;3.43;;
10088;SDS011;51898;49.864;8.550;2023-07-31T06:59:54;5.40;;;3.17;;
10088;SDS011;51898;49.864;8.550;2023-07-31T07:02:55;8.60;;;3.97;;
10088;SDS011;51898;49.864;8.550;2023-07-31T07:05:57;4.93;;;3.03;;
10088;SDS011;51898;49.864;8.550;2023-07-31T07:08:59;3.27;;;2.70;;
10088;SDS011;51898;49.864;8.550;2023-07-31T07:12:01;4.93;;;3.60;;
10088;SDS011;51898;49.864;8.550;2023-07-31T07:15:02;6.93;;;3.30;;
10088;SDS011;51898;49.864;8.550;2023-07-31T07:18:04;8.10;;;3.37;;
10088;SDS011;51898;49.864;8.550;2023-07-31T07:21:06;4.07;;;2.77;;
10088;SDS011;51898;49.864;8.550;2023-07-31T07:24:08;5.80;;;3.30;;
10088;SDS011;51898;49.864;8.550;2023-07-31T07:27:09;4.90;;;2.97;;
10088;SDS011;51898;49.864;8.550;2023-07-31T07:30:11;7.50;;;3.50;;
10088;SDS011;51898;49.864;8.550;2023-07-31T07:33:13;4.60;;;3.23;;
10088;SDS011;51898;49.864;8.550;2023-07-31T07:36:17;6.43;;;3.47;;
10088;SDS011;51898;49.864;8.550;2023-07-31T07:39:19;7.20;;;3.80;;
10088;SDS011;51898;49.864;8.550;2023-07-31T07:42:21;5.50;;;3.40;;
10088;SDS011;51898;49.864;8.550;2023-07-31T07:45:23;5.10;;;3.30;;
10088;SDS011;51898;49.864;8.550;2023-07-31T07:48:25;5.80;;;3.57;;
10088;SDS011;51898;49.864;8.550;2023-07-31T07:51:26;5.70;;;3.20;;
10088;SDS011;51898;49.864;8.550;2023-07-31T07:54:28;7.17;;;3.90;;
10088;SDS011;51898;49.864;8.550;2023-07-31T07:57:30;7.13;;;3.30;;
10088;SDS011;51898;49.864;8.550;2023-07-31T08:00:31;6.43;;;3.00;;
10088;SDS011;51898;49.864;8.550;2023-07-31T08:03:33;6.90;;;2.87;;
10088;SDS011;51898;49.864;8.550;2023-07-31T08:06:35;4.50;;;3.30;;
10088;SDS011;51898;49.864;8.550;2023-07-31T08:09:37;4.67;;;3.00;;
10088;SDS011;51898;49.864;8.550;2023-07-31T08:12:39;5.37;;;3.90;;
10088;SDS011;51898;49.864;8.550;2023-07-31T08:15:41;5.73;;;3.10;;
10088;SDS011;51898;49.864;8.550;2023-07-31T08:18:43;5.80;;;3.70;;
10088;SDS011;51898;49.864;8.550;2023-07-31T08:21:45;9.50;;;3.73;;
10088;SDS011;51898;49.864;8.550;2023-07-31T08:24:47;3.50;;;3.03;;
10088;SDS011;51898;49.864;8.550;2023-07-31T08:27:49;6.53;;;3.13;;
10088;SDS011;51898;49.864;8.550;2023-07-31T08:30:54;6.20;;;3.10;;
10088;SDS011;51898;49.864;8.550;2023-07-31T08:33:56;7.40;;;3.20;;
10088;SDS011;51898;49.864;8.550;2023-07-31T08:36:57;5.77;;;3.17;;
10088;SDS011;51898;49.864;8.550;2023-07-31T08:39:59;7.20;;;3.50;;
10088;SDS011;51898;49.864;8.550;2023-07-31T08:43:01;6.00;;;3.37;;
10088;SDS011;51898;49.864;8.550;2023-07-31T08:46:03;6.00;;;3.33;;
10088;SDS011;51898;49.864;8.550;2023-07-31T08:49:06;5.17;;;3.13;;
10088;SDS011;51898;49.864;8.550;2023-07-31T08:52:09;4.10;;;3.40;;
10088;SDS011;51898;49.864;8.550;2023-07-31T08:55:12;5.97;;;3.60;;
10088;SDS011;51898;49.864;8.550;2023-07-31T08:58:14;4.93;;;3.60;;
10088;SDS011;51898;49.864;8.550;2023-07-31T09:01:16;3.80;;;3.07;;
10088;SDS011;51898;49.864;8.550;2023-07-31T09:04:19;5.73;;;3.53;;
10088;SDS011;51898;49.864;8.550;2023-07-31T09:07:22;4.70;;;3.60;;
10088;SDS011;51898;49.864;8.550;2023-07-31T09:10:24;7.30;;;3.50;;
10088;SDS011;51898;49.864;8.550;2023-07-31T09:13:27;6.27;;;3.53;;
10088;SDS011;51898;49.864;8.550;2023-07-31T09:16:30;5.53;;;3.80;;
10088;SDS011;51898;49.864;8.550;2023-07-31T09:19:35;7.63;;;4.27;;
10088;SDS011;51898;49.864;8.550;2023-07-31T09:22:39;6.60;;;3.37;;
10088;SDS011;51898;49.864;8.550;2023-07-31T09:25:46;5.57;;;3.17;;
10088;SDS011;51898;49.864;8.550;2023-07-31T09:28:47;6.47;;;3.73;;
10088;SDS011;51898;49.864;8.550;2023-07-31T09:31:50;5.00;;;3.10;;
10088;SDS011;51898;49.864;8.550;2023-07-31T09:34:52;4.83;;;3.33;;
10088;SDS011;51898;49.864;8.550;2023-07-31T09:37:56;4.70;;;3.10;;
10088;SDS011;51898;49.864;8.550;2023-07-31T09:40:59;4.70;;;3.27;;
10088;SDS011;51898;49.864;8.550;2023-07-31T09:44:01;7.43;;;3.70;;
10088;SDS011;51898;49.864;8.550;2023-07-31T09:47:03;4.37;;;3.50;;
10088;SDS011;51898;49.864;8.550;2023-07-31T09:50:07;6.90;;;3.60;;
10088;SDS011;51898;49.864;8.550;2023-07-31T09:53:10;4.40;;;3.60;;
10088;SDS011;51898;49.864;8.550;2023-07-31T09:56:15;8.30;;;3.40;;
10088;SDS011;51898;49.864;8.550;2023-07-31T09:59:20;4.37;;;3.33;;
10088;SDS011;51898;49.864;8.550;2023-07-31T10:02:24;7.30;;;3.73;;
10088;SDS011;51898;49.864;8.550;2023-07-31T10:05:33;4.93;;;3.80;;
10088;SDS011;51898;49.864;8.550;2023-07-31T10:08:36;5.87;;;4.07;;
10088;SDS011;51898;49.864;8.550;2023-07-31T10:11:44;4.70;;;3.80;;
10088;SDS011;51898;49.864;8.550;2023-07-31T10:14:57;13.30;;;4.00;;
10088;SDS011;51898;49.864;8.550;2023-07-31T10:18:00;5.70;;;3.80;;
10088;SDS011;51898;49.864;8.550;2023-07-31T10:21:02;6.10;;;3.70;;
10088;SDS011;51898;49.864;8.550;2023-07-31T10:24:05;7.60;;;3.70;;
10088;SDS011;51898;49.864;8.550;2023-07-31T10:27:07;5.57;;;4.07;;
10088;SDS011;51898;49.864;8.550;2023-07-31T10:30:11;7.43;;;4.00;;
10088;SDS011;51898;49.864;8.550;2023-07-31T10:33:20;4.20;;;3.63;;
10088;SDS011;51898;49.864;8.550;2023-07-31T10:36:21;6.63;;;4.13;;
10088;SDS011;51898;49.864;8.550;2023-07-31T10:39:33;7.20;;;4.03;;
10088;SDS011;51898;49.864;8.550;2023-07-31T10:42:38;5.10;;;3.73;;
10088;SDS011;51898;49.864;8.550;2023-07-31T10:45:50;7.60;;;3.90;;
10088;SDS011;51898;49.864;8.550;2023-07-31T10:49:01;7.73;;;3.87;;
10088;SDS011;51898;49.864;8.550;2023-07-31T10:52:03;5.60;;;3.60;;
10088;SDS011;51898;49.864;8.550;2023-07-31T10:58:30;8.50;;;4.30;;
10088;SDS011;51898;49.864;8.550;2023-07-31T11:05:05;5.17;;;3.87;;
10088;SDS011;51898;49.864;8.550;2023-07-31T11:08:14;5.23;;;4.37;;
10088;SDS011;51898;49.864;8.550;2023-07-31T11:11:19;6.60;;;3.67;;
10088;SDS011;51898;49.864;8.550;2023-07-31T11:14:22;6.73;;;4.47;;
10088;SDS011;51898;49.864;8.550;2023-07-31T11:17:25;6.50;;;4.00;;
10088;SDS011;51898;49.864;8.550;2023-07-31T11:20:28;5.83;;;3.73;;
10088;SDS011;51898;49.864;8.550;2023-07-31T11:23:31;5.33;;;3.80;;
10088;SDS011;51898;49.864;8.550;2023-07-31T11:26:33;10.47;;;4.30;;
10088;SDS011;51898;49.864;8.550;2023-07-31T11:29:35;7.27;;;3.77;;
10088;SDS011;51898;49.864;8.550;2023-07-31T11:32:37;6.83;;;3.80;;
10088;SDS011;51898;49.864;8.550;2023-07-31T11:35:43;4.23;;;3.83;;
10088;SDS011;51898;49.864;8.550;2023-07-31T11:38:49;4.67;;;3.50;;
10088;SDS011;51898;49.864;8.550;2023-07-31T11:41:51;7.50;;;3.73;;
10088;SDS011;51898;49.864;8.550;2023-07-31T11:44:52;5.83;;;4.13;;
10088;SDS011;51898;49.864;8.550;2023-07-31T11:47:55;4.67;;;4.10;;
10088;SDS011;51898;49.864;8.550;2023-07-31T11:50:58;4.30;;;3.90;;
10088;SDS011;51898;49.864;8.550;2023-07-31T11:54:01;7.43;;;4.17;;
10088;SDS011;51898;49.864;8.550;2023-07-31T11:57:04;7.37;;;4.17;;
10088;SDS011;51898;49.864;8.550;2023-07-31T12:00:07;5.63;;;3.80;;
10088;SDS011;51898;49.864;8.550;2023-07-31T12:03:12;9.33;;;4.20;;
10088;SDS011;51898;49.864;8.550;2023-07-31T12:06:15;7.07;;;3.90;;
10088;SDS011;51898;49.864;8.550;2023-07-31T12:09:17;6.70;;;4.30;;
10088;SDS011;51898;49.864;8.550;2023-07-31T12:12:22;6.43;;;3.67;;
10088;SDS011;51898;49.864;8.550;2023-07-31T12:15:35;5.43;;;4.07;;
10088;SDS011;51898;49.864;8.550;2023-07-31T12:18:42;9.63;;;4.20;;
10088;SDS011;51898;49.864;8.550;2023-07-31T12:21:44;5.47;;;4.40;;
10088;SDS011;51898;49.864;8.550;2023-07-31T12:24:46;7.87;;;4.57;;
10088;SDS011;51898;49.864;8.550;2023-07-31T12:27:47;5.77;;;3.80;;
10088;SDS011;51898;49.864;8.550;2023-07-31T12:30:52;8.23;;;4.00;;
10088;SDS011;51898;49.864;8.550;2023-07-31T12:34:00;4.70;;;3.30;;
10088;SDS011;51898;49.864;8.550;2023-07-31T12:37:04;9.03;;;3.33;;
10088;SDS011;51898;49.864;8.550;2023-07-31T12:40:07;5.93;;;3.80;;
10088;SDS011;51898;49.864;8.550;2023-07-31T12:43:09;6.30;;;4.10;;
10088;SDS011;51898;49.864;8.550;2023-07-31T12:46:11;5.30;;;3.78;;
10088;SDS011;51898;49.864;8.550;2023-07-31T12:49:14;7.67;;;3.77;;
10088;SDS011;51898;49.864;8.550;2023-07-31T12:52:16;5.33;;;4.23;;
10088;SDS011;51898;49.864;8.550;2023-07-31T12:55:21;7.40;;;3.80;;
10088;SDS011;51898;49.864;8.550;2023-07-31T12:58:23;6.67;;;3.60;;
10088;SDS011;51898;49.864;8.550;2023-07-31T13:01:25;7.37;;;3.53;;
10088;SDS011;51898;49.864;8.550;2023-07-31T13:04:28;7.23;;;4.30;;
10088;SDS011;51898;49.864;8.550;2023-07-31T13:07:30;4.40;;;3.63;;
10088;SDS011;51898;49.864;8.550;2023-07-31T13:10:32;4.33;;;3.93;;
10088;SDS011;51898;49.864;8.550;2023-07-31T13:13:35;8.03;;;3.77;;
10088;SDS011;51898;49.864;8.550;2023-07-31T13:16:37;3.97;;;3.57;;
10088;SDS011;51898;49.864;8.550;2023-07-31T13:19:39;5.10;;;3.40;;
10088;SDS011;51898;49.864;8.550;2023-07-31T13:22:41;4.20;;;3.77;;
10088;SDS011;51898;49.864;8.550;2023-07-31T13:25:47;6.27;;;4.13;;
10088;SDS011;51898;49.864;8.550;2023-07-31T13:28:51;6.43;;;3.50;;
10088;SDS011;51898;49.864;8.550;2023-07-31T13:31:53;4.50;;;3.80;;
10088;SDS011;51898;49.864;8.550;2023-07-31T13:34:55;7.80;;;3.80;;
10088;SDS011;51898;49.864;8.550;2023-07-31T13:37:57;5.90;;;3.93;;
10088;SDS011;51898;49.864;8.550;2023-07-31T13:40:59;5.03;;;3.83;;
10088;SDS011;51898;49.864;8.550;2023-07-31T13:44:01;4.87;;;3.63;;
10088;SDS011;51898;49.864;8.550;2023-07-31T13:47:03;5.10;;;3.97;;
10088;SDS011;51898;49.864;8.550;2023-07-31T13:50:05;6.97;;;4.00;;
10088;SDS011;51898;49.864;8.550;2023-07-31T13:53:07;6.33;;;3.97;;
10088;SDS011;51898;49.864;8.550;2023-07-31T13:56:09;7.00;;;3.70;;
10088;SDS011;51898;49.864;8.550;2023-07-31T13:59:11;5.00;;;3.60;;
10088;SDS011;51898;49.864;8.550;2023-07-31T14:02:13;5.90;;;4.17;;
10088;SDS011;51898;49.864;8.550;2023-07-31T14:05:17;5.80;;;3.70;;
10088;SDS011;51898;49.864;8.550;2023-07-31T14:08:19;5.47;;;3.60;;
10088;SDS011;51898;49.864;8.550;2023-07-31T14:11:21;6.77;;;4.20;;
10088;SDS011;51898;49.864;8.550;2023-07-31T14:14:24;4.50;;;3.50;;
10088;SDS011;51898;49.864;8.550;2023-07-31T14:17:26;6.20;;;3.30;;
10088;SDS011;51898;49.864;8.550;2023-07-31T14:20:28;5.67;;;3.80;;
10088;SDS011;51898;49.864;8.550;2023-07-31T14:23:31;7.47;;;3.60;;
10088;SDS011;51898;49.864;8.550;2023-07-31T14:26:33;6.00;;;4.10;;
10088;SDS011;51898;49.864;8.550;2023-07-31T14:29:35;8.70;;;3.40;;
10088;SDS011;51898;49.864;8.550;2023-07-31T14:32:37;5.17;;;3.40;;
10088;SDS011;51898;49.864;8.550;2023-07-31T14:35:39;4.57;;;3.13;;
10088;SDS011;51898;49.864;8.550;2023-07-31T14:38:41;3.30;;;3.00;;
10088;SDS011;51898;49.864;8.550;2023-07-31T14:41:43;7.20;;;3.90;;
10088;SDS011;51898;49.864;8.550;2023-07-31T14:44:46;8.60;;;3.53;;
10088;SDS011;51898;49.864;8.550;2023-07-31T14:47:48;8.13;;;4.30;;
10088;SDS011;51898;49.864;8.550;2023-07-31T14:50:50;6.37;;;3.67;;
10088;SDS011;51898;49.864;8.550;2023-07-31T14:53:52;8.27;;;3.20;;
10088;SDS011;51898;49.864;8.550;2023-07-31T14:56:54;5.63;;;3.77;;
10088;SDS011;51898;49.864;8.550;2023-07-31T14:59:57;6.17;;;3.47;;
10088;SDS011;51898;49.864;8.550;2023-07-31T15:02:59;6.10;;;3.90;;
10088;SDS011;51898;49.864;8.550;2023-07-31T15:06:01;5.60;;;3.50;;
10088;SDS011;51898;49.864;8.550;2023-07-31T15:09:03;7.67;;;3.83;;
10088;SDS011;51898;49.864;8.550;2023-07-31T15:12:05;5.20;;;3.80;;
10088;SDS011;51898;49.864;8.550;2023-07-31T15:15:08;4.13;;;3.73;;
10088;SDS011;51898;49.864;8.550;2023-07-31T15:18:10;6.97;;;4.40;;
10088;SDS011;51898;49.864;8.550;2023-07-31T15:21:12;8.83;;;3.80;;
10088;SDS011;51898;49.864;8.550;2023-07-31T15:24:15;6.70;;;3.40;;
10088;SDS011;51898;49.864;8.550;2023-07-31T15:27:17;3.50;;;3.20;;
10088;SDS011;51898;49.864;8.550;2023-07-31T15:30:19;6.27;;;3.47;;
10088;SDS011;51898;49.864;8.550;2023-07-31T15:33:21;5.30;;;3.23;;
10088;SDS011;51898;49.864;8.550;2023-07-31T15:36:23;6.63;;;3.43;;
10088;SDS011;51898;49.864;8.550;2023-07-31T15:39:25;7.00;;;3.63;;
10088;SDS011;51898;49.864;8.550;2023-07-31T15:42:27;5.93;;;3.20;;
10088;SDS011;51898;49.864;8.550;2023-07-31T15:45:29;4.53;;;3.20;;
10088;SDS011;51898;49.864;8.550;2023-07-31T15:48:31;4.20;;;3.10;;
10088;SDS011;51898;49.864;8.550;2023-07-31T15:51:33;5.60;;;2.80;;
10088;SDS011;51898;49.864;8.550;2023-07-31T15:54:36;4.20;;;3.20;;
10088;SDS011;51898;49.864;8.550;2023-07-31T15:57:38;4.23;;;2.83;;
10088;SDS011;51898;49.864;8.550;2023-07-31T16:00:40;3.67;;;2.90;;
10088;SDS011;51898;49.864;8.550;2023-07-31T16:03:42;4.73;;;3.10;;
10088;SDS011;51898;49.864;8.550;2023-07-31T16:06:44;4.23;;;3.40;;
10088;SDS011;51898;49.864;8.550;2023-07-31T16:09:47;4.17;;;3.10;;
10088;SDS011;51898;49.864;8.550;2023-07-31T16:12:49;4.00;;;2.93;;
10088;SDS011;51898;49.864;8.550;2023-07-31T16:15:51;5.50;;;3.17;;
10088;SDS011;51898;49.864;8.550;2023-07-31T16:18:53;4.90;;;3.53;;
10088;SDS011;51898;49.864;8.550;2023-07-31T16:21:55;4.83;;;3.43;;
10088;SDS011;51898;49.864;8.550;2023-07-31T16:24:57;4.70;;;3.40;;
10088;SDS011;51898;49.864;8.550;2023-07-31T16:27:59;4.27;;;2.97;;
10088;SDS011;51898;49.864;8.550;2023-07-31T16:31:01;9.53;;;3.40;;
10088;SDS011;51898;49.864;8.550;2023-07-31T16:34:03;7.70;;;4.17;;
10088;SDS011;51898;49.864;8.550;2023-07-31T16:37:05;6.60;;;3.27;;
10088;SDS011;51898;49.864;8.550;2023-07-31T16:40:07;8.73;;;4.10;;
10088;SDS011;51898;49.864;8.550;2023-07-31T16:43:09;10.10;;;3.50;;
10088;SDS011;51898;49.864;8.550;2023-07-31T16:46:11;5.23;;;3.50;;
10088;SDS011;51898;49.864;8.550;2023-07-31T16:49:13;4.33;;;3.40;;
10088;SDS011;51898;49.864;8.550;2023-07-31T16:52:15;7.07;;;3.30;;
10088;SDS011;51898;49.864;8.550;2023-07-31T16:55:17;7.37;;;4.17;;
10088;SDS011;51898;49.864;8.550;2023-07-31T16:58:18;6.47;;;3.67;;
10088;SDS011;51898;49.864;8.550;2023-07-31T17:01:20;8.23;;;3.67;;
10088;SDS011;51898;49.864;8.550;2023-07-31T17:04:23;6.37;;;3.73;;
10088;SDS011;51898;49.864;8.550;2023-07-31T17:07:25;7.03;;;3.67;;
10088;SDS011;51898;49.864;8.550;2023-07-31T17:10:26;7.73;;;3.40;;
10088;SDS011;51898;49.864;8.550;2023-07-31T17:13:28;9.43;;;4.10;;
10088;SDS011;51898;49.864;8.550;2023-07-31T17:16:30;11.10;;;4.17;;
10088;SDS011;51898;49.864;8.550;2023-07-31T17:19:35;14.93;;;4.87;;
10088;SDS011;51898;49.864;8.550;2023-07-31T17:22:36;7.50;;;3.77;;
10088;SDS011;51898;49.864;8.550;2023-07-31T17:25:48;7.70;;;4.10;;
10088;SDS011;51898;49.864;8.550;2023-07-31T17:28:50;6.37;;;3.50;;
10088;SDS011;51898;49.864;8.550;2023-07-31T17:31:52;7.50;;;4.87;;
10088;SDS011;51898;49.864;8.550;2023-07-31T17:34:54;11.50;;;4.07;;
10088;SDS011;51898;49.864;8.550;2023-07-31T17:37:55;8.47;;;4.30;;
10088;SDS011;51898;49.864;8.550;2023-07-31T17:40:59;4.27;;;3.80;;
10088;SDS011;51898;49.864;8.550;2023-07-31T17:44:01;7.07;;;4.10;;
10088;SDS011;51898;49.864;8.550;2023-07-31T17:47:03;6.60;;;3.80;;
10088;SDS011;51898;49.864;8.550;2023-07-31T17:50:05;9.07;;;3.90;;
10088;SDS011;51898;49.864;8.550;2023-07-31T17:53:07;8.87;;;3.77;;
10088;SDS011;51898;49.864;8.550;2023-07-31T17:56:09;6.47;;;4.20;;
10088;SDS011;51898;49.864;8.550;2023-07-31T17:59:11;5.87;;;4.13;;
10088;SDS011;51898;49.864;8.550;2023-07-31T18:02:13;8.63;;;4.10;;
10088;SDS011;51898;49.864;8.550;2023-07-31T18:05:15;7.87;;;4.23;;
10088;SDS011;51898;49.864;8.550;2023-07-31T18:08:17;5.27;;;3.97;;
10088;SDS011;51898;49.864;8.550;2023-07-31T18:11:20;9.60;;;4.43;;
10088;SDS011;51898;49.864;8.550;2023-07-31T18:14:22;7.93;;;4.27;;
10088;SDS011;51898;49.864;8.550;2023-07-31T18:17:26;6.93;;;3.97;;
10088;SDS011;51898;49.864;8.550;2023-07-31T18:20:28;9.80;;;5.20;;
10088;SDS011;51898;49.864;8.550;2023-07-31T18:23:30;7.60;;;3.97;;
10088;SDS011;51898;49.864;8.550;2023-07-31T18:26:31;10.20;;;5.27;;
10088;SDS011;51898;49.864;8.550;2023-07-31T18:29:33;6.57;;;4.60;;
10088;SDS011;51898;49.864;8.550;2023-07-31T18:32:36;10.10;;;4.47;;
10088;SDS011;51898;49.864;8.550;2023-07-31T18:35:38;5.97;;;4.00;;
10088;SDS011;51898;49.864;8.550;2023-07-31T18:38:40;4.30;;;3.80;;